Airport View

Enter AWOS ICAO identifier for current METAR.

ex. KFNL

KUNU 080922Z AUTO 00000KT M1/4SM FG OVC002 06/06 A2970 RMK AO2 T00550055

8 Apr 2020 09:18

Frequency: 120.825

Phone: 920-386-5682

Other Area AWOS: KRYV - KFLD - KETB - KUES

TAF AMD KUES 080740Z 0808/0906 00000KT 1/4SM FG BKN005 FM081100 00000KT 1/2SM FG BKN003 FM081400 21004KT P6SM SCT003 SCT120 FM082000 25011G20KT P6SM VCSH BKN070 FM090200 31012KT P6SM SCT100